Time;durP1;ratioP1;P1;durP2;ratioP2;P2;SDS_P1;SDS_P2;PMS_P1;PMS_P2;Temp;Humidity;BMP_temperature;BMP_pressure;BME280_temperature;BME280_humidity;BME280_pressure;Samples;Min_cycle;Max_cycle;Signal;HPM_P1;HPM_P2
2021/08/09 00:01:37;;;;;;;3.30;2.50;;;14.00;1.00;;;;;;4979182;28;20206;-85
2021/08/09 00:04:06;;;;;;;2.57;2.30;;;13.90;1.00;;;;;;4980904;28;20220;-85
2021/08/09 00:06:32;;;;;;;2.60;2.40;;;13.90;1.00;;;;;;4974570;28;20289;-85
2021/08/09 00:09:02;;;;;;;2.77;2.57;;;13.90;1.00;;;;;;4979059;28;20194;-84
2021/08/09 00:11:30;;;;;;;3.20;2.27;;;13.90;1.00;;;;;;4989666;28;20263;-85
2021/08/09 00:13:56;;;;;;;3.83;2.67;;;;;;;;;;4983271;28;20196;-84
2021/08/09 00:16:22;;;;;;;3.17;2.10;;;;;;;;;;4980523;28;20719;-85
2021/08/09 00:18:49;;;;;;;3.30;2.37;;;14.00;1.00;;;;;;4979182;28;20200;-85
2021/08/09 00:21:16;;;;;;;2.60;2.20;;;14.10;1.00;;;;;;4979830;28;20190;-86
2021/08/09 00:23:42;;;;;;;2.50;2.17;;;14.00;1.00;;;;;;4978679;28;20205;-84
2021/08/09 00:26:08;;;;;;;2.63;2.43;;;14.00;1.00;;;;;;4975866;28;20232;-85
2021/08/09 00:28:34;;;;;;;4.10;2.70;;;14.00;1.00;;;;;;4973033;28;20201;-85
2021/08/09 00:31:00;;;;;;;3.13;2.53;;;14.00;1.00;;;;;;4979965;28;20189;-85
2021/08/09 00:33:25;;;;;;;2.50;2.30;;;14.00;1.00;;;;;;4981361;28;20292;-85
2021/08/09 00:35:51;;;;;;;2.43;2.23;;;13.90;1.00;;;;;;4977018;28;20266;-86
2021/08/09 00:38:16;;;;;;;4.07;2.60;;;13.90;1.00;;;;;;4976158;28;20294;-85
2021/08/09 00:40:42;;;;;;;3.20;2.40;;;13.90;1.00;;;;;;4980622;28;20269;-84
2021/08/09 00:43:08;;;;;;;5.40;2.63;;;13.90;1.00;;;;;;4997254;28;20208;-85
2021/08/09 00:45:34;;;;;;;3.83;2.50;;;13.70;1.00;;;;;;4979600;28;20213;-85
2021/08/09 00:48:00;;;;;;;3.63;2.67;;;13.70;1.00;;;;;;4976659;28;20395;-85
2021/08/09 00:50:25;;;;;;;6.27;3.07;;;13.70;1.00;;;;;;4995315;28;20252;-85
2021/08/09 00:52:51;;;;;;;2.57;2.37;;;13.70;1.00;;;;;;4982333;28;20186;-86
2021/08/09 00:55:18;;;;;;;3.80;3.03;;;13.60;1.00;;;;;;4978128;28;20232;-86
2021/08/09 00:57:44;;;;;;;3.40;2.70;;;13.60;1.00;;;;;;4979274;28;20264;-86
2021/08/09 01:00:10;;;;;;;5.10;2.60;;;13.60;1.00;;;;;;4977976;28;20245;-85
2021/08/09 01:02:36;;;;;;;8.47;2.80;;;13.50;1.00;;;;;;4979026;28;20202;-85
2021/08/09 01:05:04;;;;;;;4.07;2.67;;;13.50;1.00;;;;;;4979094;28;20214;-85
2021/08/09 01:07:41;;;;;;;4.87;2.87;;;13.50;1.00;;;;;;4976050;28;20202;-85
2021/08/09 01:10:20;;;;;;;3.37;2.50;;;13.40;1.00;;;;;;4975470;28;20186;-85
2021/08/09 01:13:17;;;;;;;3.03;2.70;;;13.30;1.00;;;;;;4976341;28;20193;-85
2021/08/09 01:15:47;;;;;;;2.87;2.37;;;13.30;1.00;;;;;;4965333;28;20224;-84
2021/08/09 01:18:15;;;;;;;4.70;2.83;;;13.20;1.00;;;;;;4972553;28;20186;-85
2021/08/09 01:20:52;;;;;;;3.50;2.63;;;13.20;1.00;;;;;;4986462;28;20198;-85
2021/08/09 01:23:29;;;;;;;4.23;2.77;;;13.20;1.00;;;;;;4977409;28;20204;-85
2021/08/09 01:26:16;;;;;;;2.63;2.43;;;13.20;1.00;;;;;;4978734;28;20209;-85
2021/08/09 01:28:43;;;;;;;4.23;2.40;;;13.20;1.00;;;;;;4974171;28;20189;-85
2021/08/09 01:31:10;;;;;;;3.30;2.33;;;13.30;1.00;;;;;;4976762;28;20201;-85
2021/08/09 01:33:38;;;;;;;3.70;2.70;;;13.50;1.00;;;;;;4992534;28;20220;-84
2021/08/09 01:36:06;;;;;;;3.57;2.40;;;13.20;1.00;;;;;;4975160;28;20186;-85
2021/08/09 01:38:32;;;;;;;5.70;3.00;;;13.20;1.00;;;;;;4977003;28;20194;-86
2021/08/09 01:40:59;;;;;;;3.90;2.40;;;13.10;1.00;;;;;;4975204;28;20575;-85
2021/08/09 01:43:26;;;;;;;4.43;2.73;;;13.10;1.00;;;;;;4977475;28;20209;-86
2021/08/09 01:45:54;;;;;;;3.07;2.03;;;13.00;1.00;;;;;;4977444;28;20646;-85
2021/08/09 01:48:19;;;;;;;5.20;2.50;;;13.00;1.00;;;;;;4978578;28;20200;-85
2021/08/09 01:50:45;;;;;;;5.03;2.70;;;13.00;1.00;;;;;;4977787;28;20280;-85
2021/08/09 01:53:12;;;;;;;3.07;2.60;;;13.10;1.00;;;;;;4977902;28;20564;-84
2021/08/09 01:55:39;;;;;;;5.03;2.70;;;13.10;1.00;;;;;;4977913;28;20280;-84
2021/08/09 01:58:05;;;;;;;6.07;2.80;;;13.10;1.00;;;;;;4973189;28;20198;-86
2021/08/09 02:00:31;;;;;;;4.03;3.07;;;13.00;1.00;;;;;;4975407;28;20233;-85
2021/08/09 02:02:57;;;;;;;6.23;2.50;;;13.00;1.00;;;;;;4977190;28;20197;-84
2021/08/09 02:05:23;;;;;;;3.53;2.43;;;13.00;1.00;;;;;;4973673;28;20237;-85
2021/08/09 02:07:50;;;;;;;3.13;2.67;;;13.00;1.00;;;;;;4992396;28;20240;-86
2021/08/09 02:10:20;;;;;;;2.87;2.60;;;12.90;1.00;;;;;;4974421;28;20614;-85
2021/08/09 02:12:49;;;;;;;2.20;1.97;;;13.00;1.00;;;;;;4973937;28;20197;-85
2021/08/09 02:15:24;;;;;;;3.10;2.37;;;12.90;1.00;;;;;;4975756;28;20180;-86
2021/08/09 02:18:01;;;;;;;2.73;2.23;;;12.90;1.00;;;;;;4974540;28;20339;-86
2021/08/09 02:20:37;;;;;;;2.50;2.17;;;13.00;1.00;;;;;;4974604;28;20234;-86
2021/08/09 02:23:08;;;;;;;4.00;2.30;;;13.00;1.00;;;;;;4973098;28;20372;-85
2021/08/09 02:25:35;;;;;;;2.90;2.20;;;13.00;1.00;;;;;;4983792;28;20213;-85
2021/08/09 02:28:17;;;;;;;3.43;2.40;;;12.90;1.00;;;;;;4974699;28;20286;-85
2021/08/09 02:30:50;;;;;;;2.50;2.20;;;12.90;1.00;;;;;;4976412;28;20543;-84
2021/08/09 02:33:18;;;;;;;3.83;2.53;;;12.90;1.00;;;;;;4976148;28;20196;-84
2021/08/09 02:35:45;;;;;;;4.03;2.27;;;13.00;1.00;;;;;;4975675;28;21065;-85
2021/08/09 02:38:11;;;;;;;6.83;2.60;;;13.10;1.00;;;;;;4972896;28;20174;-84
2021/08/09 02:40:38;;;;;;;2.70;1.97;;;13.10;1.00;;;;;;4973484;28;20202;-86
2021/08/09 02:43:05;;;;;;;3.47;2.50;;;13.10;1.00;;;;;;4976366;28;20192;-85
2021/08/09 02:45:31;;;;;;;3.53;2.60;;;13.10;1.00;;;;;;4975926;28;20243;-85
2021/08/09 02:47:58;;;;;;;3.60;2.50;;;13.10;1.00;;;;;;4982097;28;20557;-85
2021/08/09 02:50:24;;;;;;;2.70;2.40;;;13.10;1.00;;;;;;4971434;28;20201;-85
2021/08/09 02:52:50;;;;;;;2.60;2.40;;;13.10;1.00;;;;;;4988619;28;20279;-85
2021/08/09 02:55:18;;;;;;;3.43;2.10;;;13.10;1.00;;;;;;4973041;28;20189;-85
2021/08/09 02:57:46;;;;;;;3.10;2.40;;;13.20;1.00;;;;;;4981512;28;20200;-85
2021/08/09 03:00:12;;;;;;;3.33;2.70;;;13.10;1.00;;;;;;4976382;28;20248;-86
2021/08/09 03:02:42;;;;;;;3.20;2.30;;;13.20;1.00;;;;;;4976519;28;20555;-85
2021/08/09 03:05:10;;;;;;;2.50;2.30;;;13.20;1.00;;;;;;4976863;28;20217;-85
2021/08/09 03:07:37;;;;;;;3.47;2.37;;;13.20;1.00;;;;;;4972503;28;20233;-85
2021/08/09 03:10:07;;;;;;;2.70;2.17;;;13.20;1.00;;;;;;4975690;28;20240;-86
2021/08/09 03:12:33;;;;;;;3.00;2.10;;;13.20;1.00;;;;;;4976085;28;20185;-86
2021/08/09 03:14:59;;;;;;;3.10;2.30;;;13.30;1.00;;;;;;4976621;28;20212;-85
2021/08/09 03:17:25;;;;;;;2.73;2.30;;;13.20;1.00;;;;;;4972426;28;20192;-86
2021/08/09 03:19:50;;;;;;;2.57;2.10;;;13.20;1.00;;;;;;4976693;28;20195;-85
2021/08/09 03:22:17;;;;;;;3.70;2.57;;;13.40;1.00;;;;;;4976617;28;20195;-86
2021/08/09 03:24:42;;;;;;;5.20;2.30;;;13.30;1.00;;;;;;4977980;28;20300;-85
2021/08/09 03:27:08;;;;;;;3.90;2.70;;;13.20;1.00;;;;;;4977078;28;20704;-85
2021/08/09 03:29:34;;;;;;;2.67;2.30;;;13.10;1.00;;;;;;4975739;28;20192;-85
2021/08/09 03:32:00;;;;;;;4.03;2.50;;;13.20;1.00;;;;;;4977545;28;20669;-85
2021/08/09 03:34:25;;;;;;;5.60;2.47;;;13.10;1.00;;;;;;4977307;28;20193;-85
2021/08/09 03:36:52;;;;;;;5.40;2.57;;;13.20;1.00;;;;;;4975465;28;20199;-86
2021/08/09 03:39:19;;;;;;;3.63;2.60;;;13.10;1.00;;;;;;4979875;28;20247;-85
2021/08/09 03:41:45;;;;;;;4.20;2.77;;;13.10;1.00;;;;;;4975778;28;20191;-85
2021/08/09 03:44:12;;;;;;;4.17;2.70;;;13.10;1.00;;;;;;4980094;28;20227;-85
2021/08/09 03:46:38;;;;;;;3.70;2.87;;;13.00;1.00;;;;;;4987651;28;20191;-85
2021/08/09 03:49:07;;;;;;;4.37;2.53;;;13.00;1.00;;;;;;4981317;28;20255;-85
2021/08/09 03:51:34;;;;;;;4.10;2.70;;;13.00;1.00;;;;;;4981673;28;20192;-85
2021/08/09 03:53:59;;;;;;;5.03;2.80;;;13.00;1.00;;;;;;4981106;28;20201;-86
2021/08/09 03:56:25;;;;;;;4.27;2.47;;;13.00;1.00;;;;;;4979227;28;20706;-85
2021/08/09 03:58:51;;;;;;;3.00;2.70;;;13.20;1.00;;;;;;4973735;28;20190;-85
2021/08/09 04:01:17;;;;;;;3.90;2.60;;;13.10;1.00;;;;;;4982928;28;20202;-85
2021/08/09 04:03:43;;;;;;;5.83;3.20;;;;;;;;;;4977950;28;20729;-86
2021/08/09 04:06:08;;;;;;;2.87;2.57;;;13.10;1.00;;;;;;4979131;28;20218;-85
2021/08/09 04:08:34;;;;;;;3.33;2.70;;;13.00;1.00;;;;;;4979886;28;20221;-86
2021/08/09 04:11:00;;;;;;;5.53;2.53;;;;;;;;;;4973238;28;20200;-85
2021/08/09 04:13:26;;;;;;;4.57;2.60;;;13.00;1.00;;;;;;4980640;28;20193;-86
2021/08/09 04:15:51;;;;;;;2.47;2.27;;;12.80;1.00;;;;;;4978973;28;20189;-85
2021/08/09 04:18:17;;;;;;;2.90;2.17;;;13.00;1.00;;;;;;4978502;28;20648;-85
2021/08/09 04:20:42;;;;;;;2.87;2.57;;;13.00;1.00;;;;;;4980178;28;20171;-84
2021/08/09 04:23:08;;;;;;;2.90;2.60;;;12.90;1.00;;;;;;4995073;28;20230;-85
2021/08/09 04:25:34;;;;;;;3.27;2.67;;;12.90;1.00;;;;;;4981409;28;20216;-86
2021/08/09 04:27:59;;;;;;;2.63;2.43;;;13.00;1.00;;;;;;4979010;28;20324;-85
2021/08/09 04:30:25;;;;;;;3.00;2.70;;;13.10;1.00;;;;;;4979815;28;20209;-86
2021/08/09 04:32:51;;;;;;;3.20;2.67;;;13.00;1.00;;;;;;4980349;28;20197;-84
2021/08/09 04:35:16;;;;;;;4.50;2.57;;;13.00;1.00;;;;;;4977692;28;20606;-85
2021/08/09 04:37:42;;;;;;;3.43;2.73;;;13.00;1.00;;;;;;4976272;28;20320;-85
2021/08/09 04:40:09;;;;;;;4.30;2.37;;;13.10;1.00;;;;;;4979426;28;20835;-85
2021/08/09 04:42:34;;;;;;;5.30;2.77;;;13.00;1.00;;;;;;4979657;28;20197;-85
2021/08/09 04:45:00;;;;;;;3.50;2.70;;;13.00;1.00;;;;;;4977746;28;20201;-86
2021/08/09 04:47:27;;;;;;;4.97;2.63;;;13.00;1.00;;;;;;4978649;28;20229;-85
2021/08/09 04:49:53;;;;;;;3.60;2.40;;;;;;;;;;4979416;28;20194;-85
2021/08/09 04:52:19;;;;;;;2.50;2.30;;;13.10;1.00;;;;;;4975741;28;22127;-84
2021/08/09 04:54:45;;;;;;;3.80;2.33;;;12.90;1.00;;;;;;4980360;28;20180;-85
2021/08/09 04:57:11;;;;;;;3.07;2.13;;;13.00;1.00;;;;;;4979465;28;20201;-85
2021/08/09 04:59:37;;;;;;;5.20;2.57;;;13.00;1.00;;;;;;4978320;28;20199;-85
2021/08/09 05:02:02;;;;;;;3.30;2.60;;;13.00;1.00;;;;;;4982672;28;20186;-85
2021/08/09 05:04:28;;;;;;;3.00;2.70;;;13.10;1.00;;;;;;4974296;28;20213;-85
2021/08/09 05:06:54;;;;;;;3.40;2.20;;;13.10;1.00;;;;;;4980124;28;20650;-85
2021/08/09 05:09:19;;;;;;;3.90;2.37;;;13.10;1.00;;;;;;4978356;28;20190;-85
2021/08/09 05:11:45;;;;;;;2.57;2.30;;;13.10;1.00;;;;;;4980472;28;20193;-85
2021/08/09 05:14:10;;;;;;;4.90;2.60;;;12.80;1.00;;;;;;4980872;28;20185;-85
2021/08/09 05:16:38;;;;;;;3.93;2.50;;;13.10;1.00;;;;;;4979694;28;20194;-85
2021/08/09 05:19:04;;;;;;;3.47;2.27;;;13.10;1.00;;;;;;4975393;28;20185;-85
2021/08/09 05:21:34;;;;;;;6.53;2.60;;;13.10;1.00;;;;;;4979194;28;24499;-85
2021/08/09 05:24:01;;;;;;;4.73;2.20;;;13.10;1.00;;;;;;4994329;28;20181;-85
2021/08/09 05:26:28;;;;;;;7.33;2.60;;;13.20;1.00;;;;;;4980429;28;20606;-85
2021/08/09 05:28:54;;;;;;;2.40;2.20;;;13.20;1.00;;;;;;4977976;28;20209;-85
2021/08/09 05:31:20;;;;;;;2.93;2.63;;;13.50;1.00;;;;;;4977108;28;20196;-86
2021/08/09 05:33:48;;;;;;;4.50;2.40;;;13.70;1.00;;;;;;4980342;28;20294;-84
2021/08/09 05:36:14;;;;;;;3.23;2.50;;;13.90;1.00;;;;;;4975437;28;20189;-85
2021/08/09 05:38:39;;;;;;;3.93;2.53;;;14.20;1.00;;;;;;4976888;28;20213;-85
2021/08/09 05:41:07;;;;;;;4.07;2.27;;;14.50;1.00;;;;;;4972160;28;20557;-85
2021/08/09 05:43:32;;;;;;;3.10;2.60;;;14.70;1.00;;;;;;4974481;28;20198;-85
2021/08/09 05:45:58;;;;;;;6.40;2.60;;;14.70;1.00;;;;;;4972413;28;20225;-84
2021/08/09 05:48:24;;;;;;;4.97;2.63;;;15.10;1.00;;;;;;4969251;28;20190;-85
2021/08/09 05:50:49;;;;;;;2.93;2.47;;;15.30;1.00;;;;;;4977072;28;20538;-85
2021/08/09 05:53:15;;;;;;;4.60;2.47;;;15.30;1.00;;;;;;4979154;28;20199;-85
2021/08/09 05:55:41;;;;;;;2.53;2.17;;;15.20;1.00;;;;;;4979375;28;20200;-84
2021/08/09 05:58:06;;;;;;;3.80;2.40;;;15.30;1.00;;;;;;4973383;28;20190;-83
2021/08/09 06:00:32;;;;;;;3.07;2.77;;;15.40;1.00;;;;;;4979934;28;20197;-83
2021/08/09 06:02:58;;;;;;;6.60;2.93;;;15.40;1.00;;;;;;4980879;28;20702;-83
2021/08/09 06:05:25;;;;;;;4.73;2.73;;;15.50;1.00;;;;;;4977231;28;20221;-86
2021/08/09 06:07:50;;;;;;;2.87;2.43;;;15.60;1.00;;;;;;4978254;28;20612;-85
2021/08/09 06:10:16;;;;;;;2.40;2.20;;;15.70;1.00;;;;;;4992937;28;20192;-84
2021/08/09 06:12:41;;;;;;;4.93;2.50;;;16.10;1.00;;;;;;4974797;28;20186;-84
2021/08/09 06:15:08;;;;;;;4.50;2.60;;;16.10;1.00;;;;;;4979959;28;20280;-84
2021/08/09 06:17:35;;;;;;;2.77;1.50;;;16.30;1.00;;;;;;4982698;28;20191;-85
2021/08/09 06:20:02;;;;;;;3.80;2.67;;;16.50;1.00;;;;;;4979402;28;20681;-84
2021/08/09 06:22:28;;;;;;;3.77;2.60;;;16.60;1.00;;;;;;4979226;28;20649;-86
2021/08/09 06:24:53;;;;;;;4.17;2.40;;;16.80;1.00;;;;;;4977432;28;20218;-86
2021/08/09 06:27:19;;;;;;;3.30;2.50;;;16.80;1.00;;;;;;4975333;28;20751;-86
2021/08/09 06:29:45;;;;;;;4.83;2.50;;;16.90;1.00;;;;;;4974396;28;20357;-85
2021/08/09 06:32:10;;;;;;;5.90;2.80;;;17.00;1.00;;;;;;4976402;28;20244;-85
2021/08/09 06:34:36;;;;;;;2.83;2.17;;;17.10;1.00;;;;;;4976059;28;20205;-86
2021/08/09 06:37:02;;;;;;;4.03;2.33;;;17.10;1.00;;;;;;4975957;28;20245;-85
2021/08/09 06:39:27;;;;;;;3.33;2.57;;;17.00;1.00;;;;;;4972043;28;20233;-86
2021/08/09 06:41:54;;;;;;;3.90;2.50;;;17.10;1.00;;;;;;4976489;28;20687;-86
2021/08/09 06:44:20;;;;;;;3.73;2.40;;;16.90;1.00;;;;;;4975801;28;20222;-85
2021/08/09 06:46:46;;;;;;;4.73;2.27;;;17.00;1.00;;;;;;4974489;28;20567;-85
2021/08/09 06:49:11;;;;;;;3.53;2.73;;;17.20;1.00;;;;;;4978968;28;20211;-85
2021/08/09 06:51:37;;;;;;;4.70;2.70;;;17.20;1.00;;;;;;4971935;28;20270;-86
2021/08/09 06:54:03;;;;;;;3.50;2.70;;;17.20;1.00;;;;;;4977122;28;20195;-87
2021/08/09 06:56:28;;;;;;;3.77;2.33;;;17.20;1.00;;;;;;4977476;28;20235;-86
2021/08/09 06:58:54;;;;;;;2.77;2.00;;;17.20;1.00;;;;;;4976971;28;20259;-88
2021/08/09 07:01:20;;;;;;;3.57;2.10;;;17.30;1.00;;;;;;4978519;28;20203;-88
2021/08/09 07:03:46;;;;;;;3.53;2.20;;;17.40;1.00;;;;;;4977798;28;20205;-89
2021/08/09 07:06:22;;;;;;;4.03;2.30;;;17.50;1.00;;;;;;4975163;28;20224;-87
2021/08/09 07:08:49;;;;;;;2.33;1.97;;;17.60;1.00;;;;;;4977278;28;20273;-86
2021/08/09 07:11:16;;;;;;;2.77;2.13;;;17.80;1.00;;;;;;4975607;28;20645;-85
2021/08/09 07:13:41;;;;;;;3.77;2.20;;;18.10;1.00;;;;;;4979205;28;20208;-86
2021/08/09 07:16:07;;;;;;;2.60;2.00;;;18.10;1.00;;;;;;4974533;28;20219;-86
2021/08/09 07:18:33;;;;;;;3.43;2.47;;;18.00;1.00;;;;;;4977434;28;20200;-83
2021/08/09 07:21:00;;;;;;;2.57;1.93;;;17.90;1.00;;;;;;4977659;28;20188;-87
2021/08/09 07:23:25;;;;;;;2.10;1.77;;;18.00;1.00;;;;;;4979924;28;20271;-88
2021/08/09 07:25:52;;;;;;;3.20;1.90;;;18.20;1.00;;;;;;4979435;28;20733;-87
2021/08/09 07:28:18;;;;;;;2.63;1.90;;;18.20;1.00;;;;;;4978077;28;20820;-86
2021/08/09 07:30:43;;;;;;;2.30;2.07;;;18.40;1.00;;;;;;4977615;28;20193;-87
2021/08/09 07:33:09;;;;;;;4.57;2.30;;;18.30;1.00;;;;;;4979278;28;20195;-86
2021/08/09 07:35:35;;;;;;;2.33;1.90;;;18.10;1.00;;;;;;4979444;28;20204;-87
2021/08/09 07:38:01;;;;;;;2.90;2.17;;;18.10;1.00;;;;;;4978153;28;20661;-87
2021/08/09 07:40:26;;;;;;;2.73;1.90;;;18.20;1.00;;;;;;4975533;28;20221;-88
2021/08/09 07:42:52;;;;;;;4.30;2.13;;;18.30;1.00;;;;;;4975154;28;20201;-85
2021/08/09 07:45:18;;;;;;;1.97;1.53;;;18.40;1.00;;;;;;4976977;28;20217;-87
2021/08/09 07:47:43;;;;;;;2.47;2.00;;;18.50;1.00;;;;;;4975629;28;20273;-87
2021/08/09 07:50:10;;;;;;;2.13;1.70;;;18.60;1.00;;;;;;4978355;28;20196;-87
2021/08/09 07:52:35;;;;;;;2.97;1.70;;;18.60;1.00;;;;;;4977207;28;20210;-85
2021/08/09 07:55:02;;;;;;;1.73;1.60;;;18.60;1.00;;;;;;4972122;28;20187;-86
2021/08/09 07:57:28;;;;;;;2.23;1.60;;;18.70;1.00;;;;;;4974634;28;20197;-87
2021/08/09 07:59:54;;;;;;;3.23;1.70;;;18.80;1.00;;;;;;4974317;28;20786;-85
2021/08/09 08:02:20;;;;;;;2.33;1.60;;;18.90;1.00;;;;;;4972547;28;20208;-86
2021/08/09 08:04:46;;;;;;;1.43;1.30;;;19.20;1.00;;;;;;4971837;28;20230;-85
2021/08/09 08:07:11;;;;;;;1.50;1.30;;;19.30;1.00;;;;;;4976631;28;20206;-85
2021/08/09 08:09:37;;;;;;;1.33;1.20;;;19.60;1.00;;;;;;4975733;28;20196;-86
2021/08/09 08:12:03;;;;;;;3.77;1.73;;;19.60;1.00;;;;;;4981050;28;20310;-85
2021/08/09 08:14:29;;;;;;;3.30;1.67;;;19.60;1.00;;;;;;4979216;28;20294;-88
2021/08/09 08:16:55;;;;;;;3.63;1.73;;;19.90;1.00;;;;;;4981878;28;20227;-85
2021/08/09 08:19:22;;;;;;;3.67;1.47;;;19.90;1.00;;;;;;4978800;28;20230;-84
2021/08/09 08:21:50;;;;;;;2.93;1.73;;;19.60;1.00;;;;;;4978687;28;20267;-86
2021/08/09 08:24:16;;;;;;;3.63;1.97;;;19.60;1.00;;;;;;4972287;28;20684;-87
2021/08/09 08:26:42;;;;;;;3.00;1.77;;;19.80;1.00;;;;;;4978656;28;20339;-87
2021/08/09 08:29:07;;;;;;;2.93;1.50;;;20.00;1.00;;;;;;4977061;28;20196;-86
2021/08/09 08:31:36;;;;;;;1.60;1.50;;;20.20;1.00;;;;;;4978484;28;20958;-84
2021/08/09 08:34:02;;;;;;;3.47;1.83;;;;;;;;;;4979435;28;20197;-87
2021/08/09 08:36:28;;;;;;;3.63;1.50;;;;;;;;;;4976712;28;20207;-86
2021/08/09 08:38:56;;;;;;;2.47;1.60;;;;;;;;;;4972663;28;20667;-86
2021/08/09 08:41:21;;;;;;;4.27;1.83;;;20.10;1.00;;;;;;4977455;28;20287;-87
2021/08/09 08:43:47;;;;;;;1.80;1.70;;;20.10;1.00;;;;;;4976760;28;20671;-88
2021/08/09 08:46:13;;;;;;;2.87;1.57;;;20.20;1.00;;;;;;4975351;28;20579;-84
2021/08/09 08:48:39;;;;;;;8.10;2.03;;;20.10;1.00;;;;;;4980317;28;20206;-83
2021/08/09 08:51:05;;;;;;;4.33;1.70;;;20.20;1.00;;;;;;4981536;28;20194;-85
2021/08/09 08:53:34;;;;;;;1.70;1.33;;;20.30;1.00;;;;;;4979694;28;20202;-83
2021/08/09 08:56:04;;;;;;;4.87;1.70;;;20.40;1.00;;;;;;4981398;28;20187;-84
2021/08/09 08:58:30;;;;;;;2.20;1.40;;;20.40;1.00;;;;;;4998706;28;20192;-84
2021/08/09 09:00:55;;;;;;;1.90;1.43;;;20.50;1.00;;;;;;4981408;28;20286;-84
2021/08/09 09:03:24;;;;;;;1.90;1.13;;;20.50;1.00;;;;;;4981375;28;20546;-84
2021/08/09 09:06:01;;;;;;;1.43;1.00;;;20.70;1.00;;;;;;4978901;28;20224;-82
2021/08/09 09:08:48;;;;;;;2.93;1.47;;;20.60;1.00;;;;;;4979122;28;20199;-82
2021/08/09 09:11:23;;;;;;;2.40;1.37;;;20.60;1.00;;;;;;4993407;28;20189;-84
2021/08/09 09:14:03;;;;;;;2.67;1.63;;;20.90;1.00;;;;;;4971702;28;20181;-83
2021/08/09 09:16:42;;;;;;;4.37;1.40;;;20.90;1.00;;;;;;4982411;28;20203;-84
2021/08/09 09:19:07;;;;;;;2.83;1.30;;;20.80;1.00;;;;;;4977191;28;20624;-84
2021/08/09 09:21:36;;;;;;;2.83;1.60;;;20.80;1.00;;;;;;4979516;28;20195;-84
2021/08/09 09:24:13;;;;;;;1.87;1.10;;;20.80;1.00;;;;;;4981008;28;20189;-83
2021/08/09 09:26:42;;;;;;;2.00;1.57;;;21.10;1.00;;;;;;4980269;28;20281;-81
2021/08/09 09:29:16;;;;;;;4.37;1.67;;;21.20;1.00;;;;;;4976954;28;20676;-82
2021/08/09 09:31:44;;;;;;;1.70;1.23;;;21.20;1.00;;;;;;4975099;28;20207;-82
2021/08/09 09:34:12;;;;;;;2.77;1.30;;;21.20;1.00;;;;;;4981932;28;20212;-82
2021/08/09 09:36:58;;;;;;;1.90;1.00;;;21.20;1.00;;;;;;4991153;28;20625;-83
2021/08/09 09:39:29;;;;;;;2.60;1.30;;;22.40;1.00;;;;;;4977732;28;20217;-84
2021/08/09 09:41:57;;;;;;;3.40;1.60;;;21.00;1.00;;;;;;4977036;28;20185;-83
2021/08/09 09:44:24;;;;;;;5.47;1.47;;;21.20;1.00;;;;;;4995861;28;20217;-82
2021/08/09 09:46:50;;;;;;;3.20;1.40;;;21.10;1.00;;;;;;4992992;28;20189;-84
2021/08/09 09:49:36;;;;;;;5.13;1.43;;;21.50;1.00;;;;;;4978362;28;20187;-85
2021/08/09 09:52:01;;;;;;;3.20;1.30;;;21.60;1.00;;;;;;4976233;28;20194;-84
2021/08/09 09:54:31;;;;;;;4.03;1.30;;;21.80;1.00;;;;;;4977534;28;20280;-85
2021/08/09 09:56:58;;;;;;;1.37;1.20;;;21.90;1.00;;;;;;4974356;28;20259;-84
2021/08/09 09:59:26;;;;;;;1.57;1.30;;;21.90;1.00;;;;;;4976533;28;20720;-84
2021/08/09 10:01:52;;;;;;;2.00;1.20;;;21.80;1.00;;;;;;4977349;28;20637;-84
2021/08/09 10:04:18;;;;;;;1.43;1.30;;;22.20;1.00;;;;;;4977761;28;20284;-83
2021/08/09 10:06:45;;;;;;;4.63;0.90;;;22.30;1.00;;;;;;4974504;28;20217;-84
2021/08/09 10:09:13;;;;;;;2.53;1.50;;;22.50;1.00;;;;;;4975426;28;20269;-84
2021/08/09 10:11:43;;;;;;;1.87;1.43;;;22.70;1.00;;;;;;4977602;28;20770;-85
2021/08/09 10:14:10;;;;;;;1.17;1.07;;;22.80;1.00;;;;;;4976310;28;20231;-84
2021/08/09 10:16:37;;;;;;;1.97;1.30;;;23.20;1.00;;;;;;4977230;28;20190;-83
2021/08/09 10:19:04;;;;;;;1.77;1.30;;;23.40;1.00;;;;;;4973066;28;20192;-85
2021/08/09 10:21:31;;;;;;;2.77;1.07;;;23.60;1.00;;;;;;4980169;28;20194;-86
2021/08/09 10:23:58;;;;;;;1.17;0.97;;;23.80;1.00;;;;;;4978224;28;20235;-85
2021/08/09 10:26:32;;;;;;;0.90;0.90;;;23.50;1.00;;;;;;4975740;28;20198;-84
2021/08/09 10:29:06;;;;;;;3.27;1.30;;;23.50;1.00;;;;;;4993997;28;20237;-84
2021/08/09 10:31:39;;;;;;;2.00;1.43;;;23.50;1.00;;;;;;4980220;28;20194;-85
2021/08/09 10:34:29;;;;;;;2.40;1.20;;;23.50;1.00;;;;;;4979203;28;20193;-83
2021/08/09 10:37:14;;;;;;;1.50;1.10;;;23.50;1.00;;;;;;4980861;28;20194;-83
2021/08/09 10:39:45;;;;;;;2.67;1.53;;;23.50;1.00;;;;;;4975196;28;20191;-86
2021/08/09 10:42:25;;;;;;;2.43;1.27;;;23.70;1.00;;;;;;4972784;28;20191;-84
2021/08/09 10:44:51;;;;;;;1.77;1.23;;;23.70;1.00;;;;;;4973667;28;20627;-85
2021/08/09 10:47:46;;;;;;;1.90;1.33;;;23.90;1.00;;;;;;4986356;28;20245;-85
2021/08/09 10:50:40;;;;;;;2.13;1.33;;;25.00;1.00;;;;;;4975193;28;20195;-84
2021/08/09 10:53:35;;;;;;;2.45;1.35;;;24.80;1.00;;;;;;4981195;28;20624;-85
2021/08/09 10:56:02;;;;;;;2.55;1.50;;;24.70;1.00;;;;;;4994436;28;20216;-84
2021/08/09 10:58:43;;;;;;;2.70;1.40;;;24.60;1.00;;;;;;4987889;28;20199;-86
2021/08/09 11:01:13;;;;;;;1.88;1.20;;;24.40;1.00;;;;;;4971973;28;20570;-87
2021/08/09 11:04:01;;;;;;;1.77;1.10;;;23.80;1.00;;;;;;4988008;28;20212;-86
2021/08/09 11:06:50;;;;;;;2.53;1.70;;;23.70;1.00;;;;;;4974263;28;20213;-86
2021/08/09 11:09:35;;;;;;;3.40;1.58;;;23.50;1.00;;;;;;4976340;28;20576;-87
2021/08/09 11:12:14;;;;;;;2.40;1.40;;;23.40;1.00;;;;;;4971987;28;20200;-85
2021/08/09 11:17:29;;;;;;;1.50;1.23;;;23.30;1.00;;;;;;4977114;28;20200;-86
2021/08/09 11:20:16;;;;;;;1.50;1.10;;;23.50;1.00;;;;;;4979044;28;20577;-86
2021/08/09 11:22:46;;;;;;;1.17;1.00;;;23.70;1.00;;;;;;4977624;28;20211;-86
2021/08/09 11:25:29;;;;;;;2.25;1.35;;;24.00;1.00;;;;;;4979298;28;20212;-85
2021/08/09 11:28:01;;;;;;;2.97;1.17;;;24.20;1.00;;;;;;4981423;28;20204;-85
2021/08/09 11:30:39;;;;;;;1.80;1.33;;;24.70;1.00;;;;;;4971322;28;20188;-87
2021/08/09 11:33:05;;;;;;;1.75;1.10;;;25.00;1.00;;;;;;4976226;28;20187;-86
2021/08/09 11:35:41;;;;;;;1.58;1.15;;;24.90;1.00;;;;;;4975151;28;20193;-86
2021/08/09 11:38:06;;;;;;;0.98;0.63;;;24.40;1.00;;;;;;4970280;28;20646;-85
2021/08/09 11:40:44;;;;;;;1.60;1.00;;;24.10;1.00;;;;;;4990587;28;20224;-85
2021/08/09 11:43:12;;;;;;;1.35;1.15;;;24.10;1.00;;;;;;4987703;28;20215;-84
2021/08/09 11:45:38;;;;;;;1.52;1.05;;;24.30;1.00;;;;;;4979041;28;20247;-85
2021/08/09 11:48:06;;;;;;;1.15;0.98;;;24.60;1.00;;;;;;4979201;28;20198;-85
2021/08/09 11:50:37;;;;;;;1.38;1.00;;;25.20;1.00;;;;;;4984215;28;20264;-86
2021/08/09 11:53:04;;;;;;;1.55;1.08;;;26.00;1.00;;;;;;4979103;28;20177;-85
2021/08/09 11:55:30;;;;;;;1.95;1.10;;;26.80;1.00;;;;;;4974878;28;20224;-86
2021/08/09 11:57:56;;;;;;;3.25;1.33;;;27.10;1.00;;;;;;4970639;28;20205;-85
2021/08/09 12:00:24;;;;;;;4.72;1.20;;;27.60;1.00;;;;;;4979684;28;20189;-87
2021/08/09 12:03:09;;;;;;;1.83;1.20;;;28.20;1.00;;;;;;4978997;28;20197;-87
2021/08/09 12:05:37;;;;;;;1.73;0.93;;;27.90;1.00;;;;;;4982479;28;20220;-86
2021/08/09 12:08:05;;;;;;;1.83;1.00;;;27.40;1.00;;;;;;4982506;28;20209;-85
2021/08/09 12:10:31;;;;;;;1.52;1.15;;;27.00;1.00;;;;;;4981530;28;20193;-85
2021/08/09 12:12:57;;;;;;;1.27;0.90;;;27.00;1.00;;;;;;4981942;28;20561;-86
2021/08/09 12:15:24;;;;;;;4.03;1.05;;;27.20;1.00;;;;;;4981634;28;20248;-86
2021/08/09 12:18:10;;;;;;;1.48;1.10;;;27.00;1.00;;;;;;4981118;28;20212;-85
2021/08/09 12:20:37;;;;;;;2.38;1.30;;;26.40;1.00;;;;;;4981151;28;20206;-85
2021/08/09 12:23:21;;;;;;;2.05;1.00;;;25.70;1.00;;;;;;4980671;28;20199;-85
2021/08/09 12:25:47;;;;;;;1.52;1.10;;;25.10;1.00;;;;;;4980612;28;20216;-85
2021/08/09 12:28:13;;;;;;;3.45;1.42;;;24.80;1.00;;;;;;4983290;28;20195;-85
2021/08/09 12:30:59;;;;;;;4.60;1.65;;;24.80;1.00;;;;;;4983047;28;20316;-85
2021/08/09 12:33:24;;;;;;;1.52;1.00;;;25.00;1.00;;;;;;4979651;28;20199;-85
2021/08/09 12:35:50;;;;;;;2.22;1.20;;;24.70;1.00;;;;;;4979494;28;20264;-85
2021/08/09 12:38:16;;;;;;;3.17;1.15;;;24.70;1.00;;;;;;4995247;28;20192;-85
2021/08/09 12:40:44;;;;;;;2.88;1.40;;;24.90;1.00;;;;;;4982228;28;20195;-85
2021/08/09 12:43:18;;;;;;;1.90;1.20;;;24.80;1.00;;;;;;4973351;28;20199;-86
2021/08/09 12:45:44;;;;;;;1.77;1.05;;;24.90;1.00;;;;;;4986565;28;20207;-85
2021/08/09 12:48:12;;;;;;;3.15;1.42;;;24.70;1.00;;;;;;4980740;28;20195;-85
2021/08/09 12:50:39;;;;;;;2.45;1.27;;;24.50;1.00;;;;;;4977304;28;20196;-85
2021/08/09 12:53:05;;;;;;;2.10;1.00;;;24.40;1.00;;;;;;4991803;28;20935;-85
2021/08/09 12:55:31;;;;;;;1.55;1.33;;;24.20;1.00;;;;;;4973993;28;20297;-86
2021/08/09 12:58:00;;;;;;;3.65;1.75;;;24.40;1.00;;;;;;4972743;28;20195;-85
2021/08/09 13:00:25;;;;;;;1.42;1.00;;;24.40;1.00;;;;;;4977313;28;20214;-84
2021/08/09 13:02:51;;;;;;;2.47;1.17;;;24.30;1.00;;;;;;4978158;28;20201;-87
2021/08/09 13:05:18;;;;;;;1.52;1.10;;;24.50;1.00;;;;;;4978264;28;20589;-89
2021/08/09 13:07:45;;;;;;;1.90;1.23;;;24.80;1.00;;;;;;4976522;28;20192;-85
2021/08/09 13:10:12;;;;;;;1.98;0.88;;;24.80;1.00;;;;;;4979106;28;20219;-85